首页
METAR-TAF:

METAR-TAF

机场 :

赫维什-巴拉顿国际机场

黑維茲, 匈牙利

纬度: 46-41-11N, 经度: 017-09-33E, 海拔: 124米

当前天气观测

该预报发布于26分钟前的01:15 UTC
风速7节,风向
温度 13°C
湿度 88%
气压 1015 hPa
能见度10公里或以上
1500米以下无云,无积雨云

METAR: LHSM 200115Z AUTO 18007KT CAVOK 13/11 Q1015

时间: 03:41 (01:41 UTC)

预报

该预报发布于14小时和26分钟前的11:15 UTC
预报有效从19日的 12点(UTC)到 19日的 21点(UTC)
风速12节,风向南转西南
能见度10公里或以上
1500米以下无云,无积雨云
成为
从 19日的 15点(UTC)到 19日的 18点(UTC)
风速7节,风向

TAF: LHSM 191115Z 1912/1921 21012KT CAVOK BECMG 1915/1918 18007KT

超过4000个机场的气象观测和天气预报(METAR&TAF报告)。

可查询的气象台以黄色和红色小点在地图上表示。

将鼠标移到小点上方,可查看气象台名称。

然后点击查看天气观测和预报。

如需切换地图:点击带黑十字的绿色按钮放大地图;点击带横线的绿色按钮缩小地图;或者点击绿色箭头查看邻近地区的地图。


METAR-TAF: